createdAt,value
2023-04-10T00:02:17.330Z,15.80
2023-04-10T00:04:38.521Z,16.03
2023-04-10T00:07:00.344Z,15.50
2023-04-10T00:09:22.991Z,17.03
2023-04-10T00:11:44.670Z,16.23
2023-04-10T00:14:06.296Z,16.47
2023-04-10T00:16:27.543Z,16.20
2023-04-10T00:18:50.635Z,17.13
2023-04-10T00:21:12.762Z,16.57
2023-04-10T00:23:35.002Z,18.30
2023-04-10T00:25:57.500Z,16.87
2023-04-10T00:28:18.488Z,17.70
2023-04-10T00:30:42.397Z,18.63
2023-04-10T00:33:03.862Z,17.53
2023-04-10T00:35:25.661Z,16.30
2023-04-10T00:37:46.983Z,15.67
2023-04-10T00:40:08.865Z,16.13
2023-04-10T00:42:31.721Z,15.47
2023-04-10T00:44:53.055Z,15.23
2023-04-10T00:47:16.327Z,15.77
2023-04-10T00:49:37.486Z,16.73
2023-04-10T00:51:59.705Z,16.60
2023-04-10T00:54:21.563Z,16.03
2023-04-10T00:56:42.778Z,16.83
2023-04-10T00:59:07.162Z,17.03
2023-04-10T01:01:28.892Z,16.10
2023-04-10T01:03:50.091Z,16.87
2023-04-10T01:06:16.874Z,15.90
2023-04-10T01:08:42.662Z,18.07
2023-04-10T01:11:06.690Z,18.30
2023-04-10T01:13:31.080Z,16.87
2023-04-10T01:15:59.695Z,18.47
2023-04-10T01:18:27.679Z,17.70
2023-04-10T01:20:48.862Z,18.23
2023-04-10T01:23:25.599Z,17.60
2023-04-10T01:25:49.900Z,16.73
2023-04-10T01:28:25.916Z,18.83
2023-04-10T01:30:49.840Z,15.90
2023-04-10T01:33:13.600Z,15.80
2023-04-10T01:35:36.037Z,17.07
2023-04-10T01:37:58.929Z,14.73
2023-04-10T01:40:21.377Z,16.70
2023-04-10T01:42:44.858Z,17.20
2023-04-10T01:45:07.510Z,18.07
2023-04-10T01:47:34.467Z,16.40
2023-04-10T01:49:59.395Z,17.90
2023-04-10T01:52:21.670Z,16.37
2023-04-10T01:54:43.642Z,15.43
2023-04-10T01:57:06.787Z,15.67
2023-04-10T01:59:28.117Z,16.90
2023-04-10T02:01:49.666Z,15.23
2023-04-10T02:04:12.670Z,16.07
2023-04-10T02:06:38.806Z,15.43
2023-04-10T02:09:07.194Z,16.90
2023-04-10T02:11:32.881Z,16.83
2023-04-10T02:13:55.690Z,16.23
2023-04-10T02:16:18.314Z,16.97
2023-04-10T02:18:40.137Z,17.00
2023-04-10T02:21:04.063Z,15.80
2023-04-10T02:23:25.690Z,15.93
2023-04-10T02:25:46.811Z,16.43
2023-04-10T02:28:09.080Z,16.13
2023-04-10T02:30:30.825Z,16.10
2023-04-10T02:32:51.828Z,17.93
2023-04-10T02:35:13.112Z,16.40
2023-04-10T02:37:39.384Z,15.40
2023-04-10T02:40:01.149Z,15.13
2023-04-10T02:42:22.409Z,16.80
2023-04-10T02:44:43.800Z,15.10
2023-04-10T02:47:05.940Z,18.27
2023-04-10T02:49:27.363Z,14.13
2023-04-10T02:51:48.661Z,16.30
2023-04-10T02:54:11.525Z,15.77
2023-04-10T02:56:35.325Z,16.63
2023-04-10T02:58:57.040Z,16.30
2023-04-10T03:01:18.486Z,15.07
2023-04-10T03:03:39.971Z,17.10
2023-04-10T03:06:01.447Z,15.63
2023-04-10T03:08:22.698Z,14.83
2023-04-10T03:10:46.299Z,17.33
2023-04-10T03:13:07.968Z,15.70
2023-04-10T03:15:29.317Z,15.40
2023-04-10T03:17:51.140Z,15.53
2023-04-10T03:20:12.839Z,16.50
2023-04-10T03:22:34.700Z,17.60
2023-04-10T03:24:56.822Z,15.37
2023-04-10T03:27:21.904Z,16.83
2023-04-10T03:29:44.018Z,15.93
2023-04-10T03:32:06.091Z,16.53
2023-04-10T03:34:27.160Z,15.27
2023-04-10T03:36:48.365Z,16.57
2023-04-10T03:39:09.587Z,15.47
2023-04-10T03:41:31.057Z,14.50
2023-04-10T03:43:53.463Z,16.13
2023-04-10T03:46:15.029Z,15.80
2023-04-10T03:48:36.315Z,14.63
2023-04-10T03:50:57.625Z,16.17
2023-04-10T03:53:18.744Z,14.00
2023-04-10T03:55:41.116Z,13.77
2023-04-10T03:58:02.488Z,15.10
2023-04-10T04:00:26.313Z,14.80
2023-04-10T04:02:47.456Z,16.70
2023-04-10T04:05:08.864Z,15.13
2023-04-10T04:07:30.543Z,15.97
2023-04-10T04:09:51.571Z,15.00
2023-04-10T04:12:12.684Z,16.13
2023-04-10T04:14:34.286Z,14.23
2023-04-10T04:16:57.011Z,15.37
2023-04-10T04:19:17.890Z,14.60
2023-04-10T04:21:39.570Z,15.53
2023-04-10T04:24:00.927Z,14.10
2023-04-10T04:26:22.366Z,16.50
2023-04-10T04:28:43.600Z,16.33
2023-04-10T04:31:05.063Z,15.83
2023-04-10T04:33:27.764Z,16.27
2023-04-10T04:35:49.320Z,15.67
2023-04-10T04:38:10.702Z,16.83
2023-04-10T04:40:32.073Z,14.73
2023-04-10T04:42:53.177Z,15.53
2023-04-10T04:45:14.613Z,15.17
2023-04-10T04:47:36.083Z,16.67
2023-04-10T04:49:58.433Z,17.63
2023-04-10T04:52:19.923Z,20.57
2023-04-10T04:54:41.307Z,19.33
2023-04-10T04:57:02.800Z,21.80
2023-04-10T04:59:24.467Z,19.27
2023-04-10T05:01:45.861Z,17.37
2023-04-10T05:04:07.548Z,16.30
2023-04-10T05:06:31.834Z,15.30
2023-04-10T05:08:53.826Z,15.73
2023-04-10T05:11:15.624Z,15.50
2023-04-10T05:13:36.986Z,15.73
2023-04-10T05:15:58.022Z,15.63
2023-04-10T05:18:23.646Z,19.33
2023-04-10T05:20:44.796Z,17.90
2023-04-10T05:23:07.545Z,16.43
2023-04-10T05:25:28.964Z,17.37
2023-04-10T05:27:50.175Z,16.60
2023-04-10T05:30:12.090Z,15.47
2023-04-10T05:32:33.067Z,16.97
2023-04-10T05:34:54.421Z,16.87
2023-04-10T05:37:15.707Z,15.40
2023-04-10T05:39:38.357Z,17.30
2023-04-10T05:41:59.677Z,17.30
2023-04-10T05:44:20.837Z,16.03
2023-04-10T05:46:42.339Z,15.20
2023-04-10T05:49:03.599Z,19.17
2023-04-10T05:51:24.924Z,17.30
2023-04-10T05:53:46.274Z,20.67
2023-04-10T05:56:10.738Z,34.30
2023-04-10T05:58:31.845Z,38.53
2023-04-10T06:00:53.174Z,21.33
2023-04-10T06:03:14.607Z,16.00
2023-04-10T06:05:35.898Z,14.63
2023-04-10T06:07:58.322Z,13.67
2023-04-10T06:10:19.862Z,12.80
2023-04-10T06:12:42.492Z,12.80
2023-04-10T06:15:03.858Z,13.33
2023-04-10T06:17:28.221Z,12.30
2023-04-10T06:19:50.858Z,12.37
2023-04-10T06:22:12.341Z,12.57
2023-04-10T06:24:33.411Z,12.33
2023-04-10T06:26:54.723Z,12.50
2023-04-10T06:29:19.432Z,11.43
2023-04-10T06:31:40.978Z,11.30
2023-04-10T06:34:02.719Z,11.43
2023-04-10T06:36:24.162Z,12.20
2023-04-10T06:38:45.961Z,11.40
2023-04-10T06:41:07.269Z,11.20
2023-04-10T06:43:29.212Z,10.83
2023-04-10T06:45:51.976Z,10.43
2023-04-10T06:48:13.117Z,10.53
2023-04-10T06:50:34.511Z,10.17
2023-04-10T06:52:59.792Z,10.07
2023-04-10T06:55:21.174Z,10.23
2023-04-10T06:57:42.590Z,10.30
2023-04-10T07:00:03.753Z,9.83
2023-04-10T07:02:26.507Z,10.30
2023-04-10T07:04:48.112Z,9.37
2023-04-10T07:07:12.485Z,8.70
2023-04-10T07:09:33.465Z,8.60
2023-04-10T07:11:54.616Z,9.50
2023-04-10T07:14:16.542Z,9.20
2023-04-10T07:16:37.760Z,8.63
2023-04-10T07:19:00.604Z,8.90
2023-04-10T07:21:21.782Z,8.27
2023-04-10T07:23:43.021Z,7.90
2023-04-10T07:26:04.474Z,8.00
2023-04-10T07:28:25.727Z,8.03
2023-04-10T07:30:47.614Z,7.60
2023-04-10T07:33:08.869Z,7.43
2023-04-10T07:35:32.113Z,7.13
2023-04-10T07:37:54.648Z,6.93
2023-04-10T07:40:15.857Z,7.03
2023-04-10T07:42:37.583Z,7.20
2023-04-10T07:44:58.679Z,7.37
2023-04-10T07:47:20.340Z,6.87
2023-04-10T07:49:41.297Z,6.50
2023-04-10T07:52:04.122Z,6.60
2023-04-10T07:54:25.424Z,6.60
2023-04-10T07:56:46.705Z,6.47
2023-04-10T07:59:07.944Z,6.83
2023-04-10T08:01:29.881Z,6.57
2023-04-10T08:03:52.117Z,6.43
2023-04-10T08:06:13.392Z,6.27
2023-04-10T08:08:36.276Z,6.20
2023-04-10T08:10:57.445Z,6.70
2023-04-10T08:13:19.013Z,6.30
2023-04-10T08:15:40.449Z,6.13
2023-04-10T08:18:01.885Z,5.87
2023-04-10T08:20:23.069Z,5.60
2023-04-10T08:22:44.358Z,5.57
2023-04-10T08:25:07.282Z,5.93
2023-04-10T08:27:28.516Z,5.50
2023-04-10T08:29:49.879Z,5.10
2023-04-10T08:32:11.117Z,4.83
2023-04-10T08:34:32.235Z,5.27
2023-04-10T08:36:53.613Z,4.80
2023-04-10T08:39:14.827Z,4.53
2023-04-10T08:41:37.389Z,4.90
2023-04-10T08:43:58.553Z,4.60
2023-04-10T08:46:20.145Z,4.27
2023-04-10T08:48:45.657Z,3.90
2023-04-10T08:51:08.889Z,3.93
2023-04-10T08:53:32.427Z,4.00
2023-04-10T08:55:53.680Z,3.60
2023-04-10T08:58:16.788Z,3.60
2023-04-10T09:00:38.603Z,3.80
2023-04-10T09:03:00.144Z,3.80
2023-04-10T09:05:22.393Z,3.80
2023-04-10T09:07:43.674Z,3.70
2023-04-10T09:10:05.286Z,3.67
2023-04-10T09:12:26.286Z,3.63
2023-04-10T09:14:53.261Z,4.53
2023-04-10T09:17:16.255Z,3.43
2023-04-10T09:19:37.473Z,3.70
2023-04-10T09:21:58.776Z,3.77
2023-04-10T09:24:20.051Z,3.90
2023-04-10T09:26:42.974Z,3.67
2023-04-10T09:29:05.019Z,3.43
2023-04-10T09:31:35.018Z,3.50
2023-04-10T09:34:07.763Z,3.03
2023-04-10T09:36:29.176Z,3.13
2023-04-10T09:38:52.201Z,4.23
2023-04-10T09:41:14.120Z,3.40
2023-04-10T09:43:35.170Z,2.90
2023-04-10T09:45:57.609Z,3.40
2023-04-10T09:48:20.418Z,3.20
2023-04-10T09:50:41.725Z,3.40
2023-04-10T09:53:02.809Z,3.20
2023-04-10T09:55:24.294Z,3.00
2023-04-10T09:57:46.486Z,3.60
2023-04-10T10:00:09.342Z,3.40
2023-04-10T10:02:31.413Z,3.20
2023-04-10T10:04:54.683Z,3.03
2023-04-10T10:07:17.312Z,3.33
2023-04-10T10:09:38.581Z,3.30
2023-04-10T10:12:00.065Z,3.17
2023-04-10T10:14:22.022Z,3.17
2023-04-10T10:16:44.769Z,2.60
2023-04-10T10:19:10.674Z,3.23
2023-04-10T10:21:34.348Z,3.20
2023-04-10T10:23:56.629Z,3.20
2023-04-10T10:26:18.780Z,3.10
2023-04-10T10:28:41.127Z,3.77
2023-04-10T10:31:03.791Z,3.70
2023-04-10T10:33:26.102Z,3.20
2023-04-10T10:35:47.831Z,2.90
2023-04-10T10:38:10.975Z,3.30
2023-04-10T10:40:33.478Z,3.10
2023-04-10T10:42:57.202Z,3.10
2023-04-10T10:45:19.289Z,3.20
2023-04-10T10:47:43.291Z,3.00
2023-04-10T10:50:04.829Z,3.30
2023-04-10T10:52:41.412Z,2.83
2023-04-10T10:55:24.138Z,3.20
2023-04-10T10:57:48.969Z,2.63
2023-04-10T11:00:10.880Z,3.00
2023-04-10T11:02:32.356Z,3.27
2023-04-10T11:04:53.742Z,2.87
2023-04-10T11:07:15.650Z,2.67
2023-04-10T11:09:50.505Z,2.87
2023-04-10T11:12:13.480Z,3.00
2023-04-10T11:14:35.350Z,2.50
2023-04-10T11:16:56.680Z,2.80
2023-04-10T11:19:22.581Z,2.47
2023-04-10T11:22:05.290Z,2.00
2023-04-10T11:24:26.451Z,1.90
2023-04-10T11:26:47.780Z,1.80
2023-04-10T11:29:23.959Z,1.90
2023-04-10T11:31:46.699Z,1.83
2023-04-10T11:34:08.877Z,1.57
2023-04-10T11:36:30.684Z,1.60
2023-04-10T11:38:55.789Z,1.80
2023-04-10T11:41:16.837Z,1.70
2023-04-10T11:43:38.097Z,1.70
2023-04-10T11:46:03.449Z,2.07
2023-04-10T11:48:26.433Z,2.10
2023-04-10T11:50:47.656Z,1.60
2023-04-10T11:53:18.443Z,1.70
2023-04-10T11:55:40.633Z,1.60
2023-04-10T11:58:02.106Z,1.60
2023-04-10T12:00:24.740Z,1.50
2023-04-10T12:02:53.312Z,1.80
2023-04-10T12:05:16.266Z,1.73
2023-04-10T12:07:37.598Z,2.20
2023-04-10T12:09:58.973Z,1.90
2023-04-10T12:12:20.787Z,2.00
2023-04-10T12:14:42.821Z,2.03
2023-04-10T12:17:04.772Z,1.80
2023-04-10T12:19:26.965Z,2.20
2023-04-10T12:21:49.483Z,1.93
2023-04-10T12:24:10.736Z,2.20
2023-04-10T12:26:32.194Z,2.20
2023-04-10T12:28:54.171Z,2.10
2023-04-10T12:31:16.084Z,2.17
2023-04-10T12:33:37.204Z,2.00
2023-04-10T12:35:59.194Z,2.23
2023-04-10T12:38:35.280Z,2.10
2023-04-10T12:41:00.909Z,2.30
2023-04-10T12:43:31.401Z,2.20
2023-04-10T12:45:52.546Z,2.50
2023-04-10T12:48:13.847Z,2.00
2023-04-10T12:50:35.206Z,2.40
2023-04-10T12:53:03.537Z,2.43
2023-04-10T12:55:25.798Z,2.30
2023-04-10T12:57:49.113Z,2.30
2023-04-10T13:00:11.294Z,2.30
2023-04-10T13:02:32.643Z,2.30
2023-04-10T13:04:53.839Z,2.37
2023-04-10T13:07:15.257Z,2.20
2023-04-10T13:09:37.014Z,1.97
2023-04-10T13:11:58.443Z,1.80
2023-04-10T13:14:20.952Z,2.00
2023-04-10T13:16:42.542Z,1.90
2023-04-10T13:19:03.959Z,1.90
2023-04-10T13:21:26.764Z,2.13
2023-04-10T13:23:48.076Z,1.83
2023-04-10T13:26:09.409Z,1.90
2023-04-10T13:28:30.612Z,1.90
2023-04-10T13:30:53.384Z,1.90
2023-04-10T13:33:14.583Z,1.90
2023-04-10T13:35:35.856Z,2.03
2023-04-10T13:37:57.055Z,2.10
2023-04-10T13:40:18.224Z,2.13
2023-04-10T13:42:41.990Z,2.03
2023-04-10T13:45:03.788Z,2.20
2023-04-10T13:47:26.295Z,2.10
2023-04-10T13:49:47.638Z,2.00
2023-04-10T13:52:09.082Z,1.70
2023-04-10T13:54:30.333Z,1.93
2023-04-10T13:56:51.607Z,2.10
2023-04-10T13:59:12.842Z,2.20
2023-04-10T14:01:34.101Z,2.20
2023-04-10T14:03:56.779Z,1.90
2023-04-10T14:06:17.966Z,2.27
2023-04-10T14:08:39.200Z,2.40
2023-04-10T14:11:00.455Z,1.80
2023-04-10T14:13:21.672Z,2.30
2023-04-10T14:15:43.049Z,1.87
2023-04-10T14:18:04.450Z,2.10
2023-04-10T14:20:26.977Z,1.93
2023-04-10T14:22:48.294Z,2.20
2023-04-10T14:25:13.578Z,2.20
2023-04-10T14:27:35.601Z,2.30
2023-04-10T14:29:56.702Z,2.10
2023-04-10T14:32:17.905Z,2.00
2023-04-10T14:34:39.284Z,2.63
2023-04-10T14:37:02.545Z,2.10
2023-04-10T14:39:24.696Z,2.53
2023-04-10T14:41:45.862Z,2.20
2023-04-10T14:44:07.222Z,2.10
2023-04-10T14:46:28.400Z,2.00
2023-04-10T14:48:49.878Z,2.00
2023-04-10T14:51:12.771Z,1.97
2023-04-10T14:53:35.507Z,2.13
2023-04-10T14:55:57.009Z,1.90
2023-04-10T14:58:18.773Z,2.07
2023-04-10T15:00:40.044Z,2.00
2023-04-10T15:03:01.414Z,1.97
2023-04-10T15:05:23.386Z,5.90
2023-04-10T15:07:44.754Z,2.00
2023-04-10T15:10:08.144Z,2.23
2023-04-10T15:12:32.044Z,2.10
2023-04-10T15:14:53.344Z,2.30
2023-04-10T15:17:14.842Z,2.17
2023-04-10T15:19:36.095Z,2.20
2023-04-10T15:21:57.561Z,2.20
2023-04-10T15:24:18.969Z,2.37
2023-04-10T15:26:43.947Z,2.17
2023-04-10T15:29:05.250Z,2.50
2023-04-10T15:31:26.573Z,2.30
2023-04-10T15:33:47.717Z,2.10
2023-04-10T15:36:09.253Z,2.30
2023-04-10T15:38:30.295Z,2.30
2023-04-10T15:40:51.613Z,2.47
2023-04-10T15:43:14.402Z,2.40
2023-04-10T15:45:36.769Z,2.40
2023-04-10T15:48:00.974Z,2.30
2023-04-10T15:50:22.233Z,2.80
2023-04-10T15:52:43.530Z,2.30
2023-04-10T15:55:04.933Z,2.07
2023-04-10T15:57:26.188Z,2.23
2023-04-10T15:59:52.076Z,2.67
2023-04-10T16:02:13.110Z,2.40
2023-04-10T16:04:35.130Z,2.13
2023-04-10T16:06:56.761Z,2.03
2023-04-10T16:11:42.500Z,2.07
2023-04-10T16:14:03.690Z,2.10
2023-04-10T16:16:27.007Z,2.00
2023-04-10T16:18:48.515Z,1.97
2023-04-10T16:21:09.762Z,2.20
2023-04-10T16:23:30.858Z,1.90
2023-04-10T16:25:52.805Z,1.80
2023-04-10T16:28:13.741Z,1.90
2023-04-10T16:30:35.035Z,2.00
2023-04-10T16:32:57.726Z,1.90
2023-04-10T16:35:19.512Z,1.90
2023-04-10T16:37:41.174Z,1.80
2023-04-10T16:40:02.532Z,1.90
2023-04-10T16:42:23.864Z,1.90
2023-04-10T16:44:45.297Z,2.00
2023-04-10T16:47:07.038Z,1.80
2023-04-10T16:49:29.451Z,1.80
2023-04-10T16:51:50.727Z,1.73
2023-04-10T16:54:12.189Z,1.90
2023-04-10T16:56:33.567Z,2.10
2023-04-10T16:58:54.832Z,2.00
2023-04-10T17:01:17.724Z,1.80
2023-04-10T17:03:38.696Z,2.00
2023-04-10T17:06:01.473Z,1.70
2023-04-10T17:08:22.632Z,1.60
2023-04-10T17:10:44.025Z,1.93
2023-04-10T17:13:05.463Z,1.87
2023-04-10T17:15:26.520Z,2.00
2023-04-10T17:17:47.972Z,1.80
2023-04-10T17:20:10.039Z,2.00
2023-04-10T17:22:32.328Z,1.80
2023-04-10T17:24:53.585Z,1.67
2023-04-10T17:27:15.040Z,2.00
2023-04-10T17:29:36.682Z,1.90
2023-04-10T17:31:57.937Z,1.70
2023-04-10T17:34:19.131Z,1.47
2023-04-10T17:36:40.477Z,1.63
2023-04-10T17:39:03.038Z,1.70
2023-04-10T17:41:24.283Z,1.77
2023-04-10T17:43:45.567Z,1.73
2023-04-10T17:46:07.355Z,1.87
2023-04-10T17:48:28.458Z,1.90
2023-04-10T17:50:51.540Z,2.80
2023-04-10T17:53:12.682Z,1.97
2023-04-10T17:55:38.540Z,1.70
2023-04-10T17:57:59.840Z,1.73
2023-04-10T18:00:21.815Z,2.17
2023-04-10T18:02:44.234Z,1.90
2023-04-10T18:05:06.571Z,2.93
2023-04-10T18:07:27.643Z,2.17
2023-04-10T18:09:48.939Z,2.20
2023-04-10T18:12:11.759Z,2.10
2023-04-10T18:14:32.998Z,1.90
2023-04-10T18:16:54.420Z,2.03
2023-04-10T18:19:15.650Z,2.10
2023-04-10T18:21:37.216Z,2.30
2023-04-10T18:23:58.229Z,1.97
2023-04-10T18:26:20.902Z,2.27
2023-04-10T18:28:45.297Z,2.20
2023-04-10T18:31:07.050Z,2.10
2023-04-10T18:33:28.279Z,1.83
2023-04-10T18:35:49.447Z,1.90
2023-04-10T18:38:10.576Z,1.97
2023-04-10T18:40:31.919Z,2.00
2023-04-10T18:42:53.366Z,1.93
2023-04-10T18:45:16.034Z,1.97
2023-04-10T18:47:37.492Z,2.60
2023-04-10T18:50:01.341Z,2.53
2023-04-10T18:52:22.694Z,2.10
2023-04-10T18:54:48.070Z,1.90
2023-04-10T18:57:09.323Z,2.10
2023-04-10T18:59:30.996Z,2.07
2023-04-10T19:01:53.717Z,2.00
2023-04-10T19:04:15.351Z,2.43
2023-04-10T19:06:39.604Z,2.20
2023-04-10T19:09:00.681Z,2.30
2023-04-10T19:11:22.065Z,2.00
2023-04-10T19:13:43.300Z,2.10
2023-04-10T19:16:05.983Z,2.10
2023-04-10T19:18:28.873Z,2.00
2023-04-10T19:20:52.932Z,2.67
2023-04-10T19:23:14.627Z,2.10
2023-04-10T19:25:36.018Z,1.90
2023-04-10T19:27:57.402Z,2.00
2023-04-10T19:30:18.726Z,1.93
2023-04-10T19:32:40.318Z,2.03
2023-04-10T19:35:02.834Z,2.10
2023-04-10T19:37:24.200Z,2.03
2023-04-10T19:39:45.837Z,1.87
2023-04-10T19:42:07.177Z,1.93
2023-04-10T19:44:28.444Z,2.10
2023-04-10T19:46:49.686Z,1.90
2023-04-10T19:49:10.938Z,1.80
2023-04-10T19:51:33.584Z,2.00
2023-04-10T19:53:55.784Z,2.10
2023-04-10T19:56:17.677Z,2.00
2023-04-10T19:58:40.374Z,1.80
2023-04-10T20:01:03.387Z,1.80
2023-04-10T20:03:27.205Z,2.30
2023-04-10T20:05:49.282Z,2.27
2023-04-10T20:08:11.938Z,3.63
2023-04-10T20:10:33.235Z,4.40
2023-04-10T20:12:54.422Z,5.53
2023-04-10T20:15:15.817Z,7.70
2023-04-10T20:17:38.593Z,6.77
2023-04-10T20:19:59.799Z,6.47
2023-04-10T20:22:21.164Z,6.37
2023-04-10T20:24:43.976Z,6.63
2023-04-10T20:27:05.116Z,4.80
2023-04-10T20:29:27.378Z,7.13
2023-04-10T20:31:48.737Z,8.73
2023-04-10T20:34:10.229Z,9.03
2023-04-10T20:36:32.380Z,8.20
2023-04-10T20:38:53.913Z,7.37
2023-04-10T20:41:16.612Z,5.93
2023-04-10T20:43:37.657Z,4.83
2023-04-10T20:46:03.214Z,3.80
2023-04-10T20:48:24.708Z,2.77
2023-04-10T20:50:46.593Z,3.07
2023-04-10T20:53:07.700Z,3.13
2023-04-10T20:55:29.075Z,2.87
2023-04-10T20:57:51.830Z,3.00
2023-04-10T21:00:13.693Z,2.80
2023-04-10T21:02:35.229Z,3.00
2023-04-10T21:04:56.812Z,3.47
2023-04-10T21:07:17.793Z,3.23
2023-04-10T21:09:39.197Z,3.10
2023-04-10T21:12:00.549Z,2.87
2023-04-10T21:14:24.536Z,2.90
2023-04-10T21:16:46.143Z,2.93
2023-04-10T21:19:07.702Z,3.73
2023-04-10T21:21:30.992Z,2.83
2023-04-10T21:23:52.343Z,3.30
2023-04-10T21:26:13.511Z,3.60
2023-04-10T21:28:35.318Z,3.30
2023-04-10T21:30:58.257Z,3.30
2023-04-10T21:33:19.399Z,3.30
2023-04-10T21:35:43.245Z,3.30
2023-04-10T21:38:04.702Z,3.23
2023-04-10T21:40:26.565Z,3.30
2023-04-10T21:42:47.614Z,3.50
2023-04-10T21:45:09.367Z,3.60
2023-04-10T21:47:32.017Z,3.30
2023-04-10T21:49:53.170Z,3.50
2023-04-10T21:52:14.666Z,3.90
2023-04-10T21:54:36.030Z,3.30
2023-04-10T21:56:57.539Z,4.03
2023-04-10T21:59:18.974Z,3.73
2023-04-10T22:01:41.663Z,3.70
2023-04-10T22:04:04.586Z,3.50
2023-04-10T22:06:26.629Z,3.57
2023-04-10T22:08:47.825Z,3.70
2023-04-10T22:11:09.075Z,4.17
2023-04-10T22:13:31.321Z,3.60
2023-04-10T22:15:52.363Z,3.83
2023-04-10T22:18:13.541Z,3.57
2023-04-10T22:20:36.315Z,3.50
2023-04-10T22:22:57.539Z,4.00
2023-04-10T22:25:18.534Z,3.67
2023-04-10T22:27:40.014Z,3.60
2023-04-10T22:30:03.800Z,3.73
2023-04-10T22:32:25.835Z,3.50
2023-04-10T22:34:47.632Z,3.47
2023-04-10T22:37:10.485Z,3.40
2023-04-10T22:39:31.521Z,3.97
2023-04-10T22:41:52.895Z,3.10
2023-04-10T22:44:14.384Z,3.10
2023-04-10T22:46:38.154Z,3.40
2023-04-10T22:48:59.536Z,3.37
2023-04-10T22:51:21.139Z,3.00
2023-04-10T22:53:43.992Z,3.20
2023-04-10T22:56:05.764Z,2.93
2023-04-10T22:58:27.084Z,2.90
2023-04-10T23:00:48.179Z,2.47
2023-04-10T23:03:11.417Z,2.30
2023-04-10T23:05:33.033Z,3.37
2023-04-10T23:07:54.356Z,2.10
2023-04-10T23:10:18.279Z,2.10
2023-04-10T23:12:39.650Z,2.00
2023-04-10T23:15:01.247Z,2.33
2023-04-10T23:17:22.305Z,2.77
2023-04-10T23:19:43.824Z,2.80
2023-04-10T23:22:05.758Z,2.30
2023-04-10T23:24:27.309Z,2.20
2023-04-10T23:26:49.928Z,2.60
2023-04-10T23:29:11.321Z,1.93
2023-04-10T23:31:32.714Z,2.03
2023-04-10T23:33:54.084Z,1.80
2023-04-10T23:36:15.959Z,2.63
2023-04-10T23:38:37.260Z,2.77
2023-04-10T23:40:58.494Z,2.73
2023-04-10T23:43:21.236Z,2.03
2023-04-10T23:45:42.500Z,2.37
2023-04-10T23:48:03.524Z,3.13
2023-04-10T23:50:24.888Z,2.67
2023-04-10T23:52:49.069Z,4.53
2023-04-10T23:55:10.800Z,4.70
2023-04-10T23:57:32.146Z,2.70
2023-04-10T23:59:54.904Z,2.83
